SPHI/CIX METAR and TAF weather

Enter ICAO airport designator
Station Type Date Time Source
SPHI METAR 2024/05/29 00:00 UTC NOAA

SPHI 290000Z 18019KT CAVOK 19/15 Q1014 RMK BIRD HAZARD RWY 19/01 PP000


Station Type Date Time Source
SPHI Decoded METAR 2024/05/29 00:00 UTC NOAA

Chiclayo, Peru (SPHI) 06-47S 079-50W 34M
May 28, 2024 - 08:00 PM EDT / 2024.05.29 0000 UTC
Wind: from the S (180 degrees) at 22 MPH (19 KT):0
Visibility: greater than 7 mile(s):0
Temperature: 66 F (19 C)
Dew Point: 59 F (15 C)
Relative Humidity: 77%
Pressure (altimeter): 29.94 in. Hg (1014 hPa)
ob: SPHI 290000Z 18019KT CAVOK 19/15 Q1014 RMK BIRD HAZARD RWY 19/01 PP000
cycle: 0

Station Type Date Time Source
SPHI TAF 2024/05/28 18:33 UTC NOAA